sensor_id;sensor_type;location;lat;lon;timestamp;P1;durP1;ratioP1;P2;durP2;ratioP2
55037;SDS011;40937;53.594;10.034;2023-10-19T00:00:49;9.15;;;8.30;;
55037;SDS011;40937;53.594;10.034;2023-10-19T00:03:16;10.25;;;8.52;;
55037;SDS011;40937;53.594;10.034;2023-10-19T00:05:44;8.90;;;8.10;;
55037;SDS011;40937;53.594;10.034;2023-10-19T00:08:12;10.02;;;8.63;;
55037;SDS011;40937;53.594;10.034;2023-10-19T00:10:43;8.38;;;7.68;;
55037;SDS011;40937;53.594;10.034;2023-10-19T00:13:14;10.60;;;8.93;;
55037;SDS011;40937;53.594;10.034;2023-10-19T00:15:42;9.25;;;8.48;;
55037;SDS011;40937;53.594;10.034;2023-10-19T00:18:14;9.87;;;9.00;;
55037;SDS011;40937;53.594;10.034;2023-10-19T00:20:50;10.02;;;9.07;;
55037;SDS011;40937;53.594;10.034;2023-10-19T00:23:18;9.75;;;8.75;;
55037;SDS011;40937;53.594;10.034;2023-10-19T00:25:54;11.10;;;9.48;;
55037;SDS011;40937;53.594;10.034;2023-10-19T00:28:24;9.23;;;8.32;;
55037;SDS011;40937;53.594;10.034;2023-10-19T00:30:52;11.27;;;10.15;;
55037;SDS011;40937;53.594;10.034;2023-10-19T00:35:54;9.77;;;8.95;;
55037;SDS011;40937;53.594;10.034;2023-10-19T00:38:26;10.45;;;9.60;;
55037;SDS011;40937;53.594;10.034;2023-10-19T00:41:05;10.35;;;9.20;;
55037;SDS011;40937;53.594;10.034;2023-10-19T00:43:39;13.02;;;8.95;;
55037;SDS011;40937;53.594;10.034;2023-10-19T00:46:10;10.35;;;9.35;;
55037;SDS011;40937;53.594;10.034;2023-10-19T00:48:47;11.27;;;10.18;;
55037;SDS011;40937;53.594;10.034;2023-10-19T00:51:16;10.68;;;9.60;;
55037;SDS011;40937;53.594;10.034;2023-10-19T00:53:55;13.77;;;10.13;;
55037;SDS011;40937;53.594;10.034;2023-10-19T00:56:25;11.90;;;10.02;;
55037;SDS011;40937;53.594;10.034;2023-10-19T00:58:56;10.43;;;9.48;;
55037;SDS011;40937;53.594;10.034;2023-10-19T01:01:28;15.82;;;10.20;;
55037;SDS011;40937;53.594;10.034;2023-10-19T01:03:56;11.27;;;10.10;;
55037;SDS011;40937;53.594;10.034;2023-10-19T01:06:24;10.05;;;9.15;;
55037;SDS011;40937;53.594;10.034;2023-10-19T01:08:57;10.75;;;9.70;;
55037;SDS011;40937;53.594;10.034;2023-10-19T01:11:24;10.68;;;9.13;;
55037;SDS011;40937;53.594;10.034;2023-10-19T01:13:54;10.75;;;9.63;;
55037;SDS011;40937;53.594;10.034;2023-10-19T01:16:22;10.50;;;9.35;;
55037;SDS011;40937;53.594;10.034;2023-10-19T01:18:52;10.27;;;9.27;;
55037;SDS011;40937;53.594;10.034;2023-10-19T01:21:21;11.48;;;10.40;;
55037;SDS011;40937;53.594;10.034;2023-10-19T01:23:54;10.90;;;9.57;;
55037;SDS011;40937;53.594;10.034;2023-10-19T01:26:22;11.60;;;9.90;;
55037;SDS011;40937;53.594;10.034;2023-10-19T01:28:52;11.15;;;10.02;;
55037;SDS011;40937;53.594;10.034;2023-10-19T01:31:24;10.43;;;9.60;;
55037;SDS011;40937;53.594;10.034;2023-10-19T01:34:03;11.52;;;9.85;;
55037;SDS011;40937;53.594;10.034;2023-10-19T01:36:34;10.32;;;9.32;;
55037;SDS011;40937;53.594;10.034;2023-10-19T01:39:09;10.65;;;9.32;;
55037;SDS011;40937;53.594;10.034;2023-10-19T01:41:37;10.13;;;9.23;;
55037;SDS011;40937;53.594;10.034;2023-10-19T01:44:07;10.50;;;9.27;;
55037;SDS011;40937;53.594;10.034;2023-10-19T01:46:34;10.40;;;9.40;;
55037;SDS011;40937;53.594;10.034;2023-10-19T01:49:02;10.80;;;9.80;;
55037;SDS011;40937;53.594;10.034;2023-10-19T01:51:30;10.45;;;9.35;;
55037;SDS011;40937;53.594;10.034;2023-10-19T01:54:04;14.30;;;9.95;;
55037;SDS011;40937;53.594;10.034;2023-10-19T01:56:32;9.45;;;8.60;;
55037;SDS011;40937;53.594;10.034;2023-10-19T01:59:01;12.93;;;10.02;;
55037;SDS011;40937;53.594;10.034;2023-10-19T02:01:30;11.88;;;10.50;;
55037;SDS011;40937;53.594;10.034;2023-10-19T02:03:59;10.48;;;9.48;;
55037;SDS011;40937;53.594;10.034;2023-10-19T02:06:27;10.32;;;8.68;;
55037;SDS011;40937;53.594;10.034;2023-10-19T02:09:02;10.57;;;9.63;;
55037;SDS011;40937;53.594;10.034;2023-10-19T02:11:36;11.32;;;10.30;;
55037;SDS011;40937;53.594;10.034;2023-10-19T02:14:07;10.32;;;9.32;;
55037;SDS011;40937;53.594;10.034;2023-10-19T02:16:41;12.80;;;10.57;;
55037;SDS011;40937;53.594;10.034;2023-10-19T02:19:08;12.68;;;9.82;;
55037;SDS011;40937;53.594;10.034;2023-10-19T02:21:36;10.68;;;9.70;;
55037;SDS011;40937;53.594;10.034;2023-10-19T02:24:06;12.60;;;10.27;;
55037;SDS011;40937;53.594;10.034;2023-10-19T02:26:34;10.77;;;9.65;;
55037;SDS011;40937;53.594;10.034;2023-10-19T02:29:03;10.68;;;9.60;;
55037;SDS011;40937;53.594;10.034;2023-10-19T02:31:33;13.60;;;10.52;;
55037;SDS011;40937;53.594;10.034;2023-10-19T02:33:59;12.38;;;9.65;;
55037;SDS011;40937;53.594;10.034;2023-10-19T02:36:27;14.23;;;9.48;;
55037;SDS011;40937;53.594;10.034;2023-10-19T02:38:54;14.68;;;10.55;;
55037;SDS011;40937;53.594;10.034;2023-10-19T02:41:24;10.82;;;9.70;;
55037;SDS011;40937;53.594;10.034;2023-10-19T02:43:54;11.38;;;9.90;;
55037;SDS011;40937;53.594;10.034;2023-10-19T02:46:31;11.55;;;10.45;;
55037;SDS011;40937;53.594;10.034;2023-10-19T02:48:59;11.70;;;10.70;;
55037;SDS011;40937;53.594;10.034;2023-10-19T02:51:28;10.63;;;9.73;;
55037;SDS011;40937;53.594;10.034;2023-10-19T02:53:55;11.40;;;10.40;;
55037;SDS011;40937;53.594;10.034;2023-10-19T02:56:25;12.55;;;10.65;;
55037;SDS011;40937;53.594;10.034;2023-10-19T02:58:56;11.90;;;10.73;;
55037;SDS011;40937;53.594;10.034;2023-10-19T03:01:30;14.05;;;11.07;;
55037;SDS011;40937;53.594;10.034;2023-10-19T03:04:00;11.23;;;10.23;;
55037;SDS011;40937;53.594;10.034;2023-10-19T03:06:30;15.65;;;10.30;;
55037;SDS011;40937;53.594;10.034;2023-10-19T03:08:58;12.10;;;11.02;;
55037;SDS011;40937;53.594;10.034;2023-10-19T03:11:27;12.32;;;11.10;;
55037;SDS011;40937;53.594;10.034;2023-10-19T03:13:55;14.43;;;11.25;;
55037;SDS011;40937;53.594;10.034;2023-10-19T03:16:23;12.55;;;11.02;;
55037;SDS011;40937;53.594;10.034;2023-10-19T03:18:53;13.35;;;10.40;;
55037;SDS011;40937;53.594;10.034;2023-10-19T03:21:20;10.93;;;9.80;;
55037;SDS011;40937;53.594;10.034;2023-10-19T03:23:52;11.52;;;10.32;;
55037;SDS011;40937;53.594;10.034;2023-10-19T03:26:19;11.18;;;10.18;;
55037;SDS011;40937;53.594;10.034;2023-10-19T03:28:53;12.35;;;10.93;;
55037;SDS011;40937;53.594;10.034;2023-10-19T03:31:29;12.20;;;10.25;;
55037;SDS011;40937;53.594;10.034;2023-10-19T03:33:58;10.48;;;9.45;;
55037;SDS011;40937;53.594;10.034;2023-10-19T03:36:30;12.13;;;10.90;;
55037;SDS011;40937;53.594;10.034;2023-10-19T03:38:58;11.75;;;10.45;;
55037;SDS011;40937;53.594;10.034;2023-10-19T03:41:38;12.75;;;10.73;;
55037;SDS011;40937;53.594;10.034;2023-10-19T03:44:08;12.80;;;10.70;;
55037;SDS011;40937;53.594;10.034;2023-10-19T03:46:44;11.93;;;10.70;;
55037;SDS011;40937;53.594;10.034;2023-10-19T03:49:20;12.48;;;11.15;;
55037;SDS011;40937;53.594;10.034;2023-10-19T03:51:48;12.05;;;10.85;;
55037;SDS011;40937;53.594;10.034;2023-10-19T03:54:45;13.73;;;11.23;;
55037;SDS011;40937;53.594;10.034;2023-10-19T03:57:14;12.60;;;11.35;;
55037;SDS011;40937;53.594;10.034;2023-10-19T03:59:46;12.10;;;10.90;;
55037;SDS011;40937;53.594;10.034;2023-10-19T04:02:17;12.75;;;11.57;;
55037;SDS011;40937;53.594;10.034;2023-10-19T04:04:46;12.52;;;11.35;;
55037;SDS011;40937;53.594;10.034;2023-10-19T04:07:14;14.95;;;11.50;;
55037;SDS011;40937;53.594;10.034;2023-10-19T04:09:47;15.90;;;13.02;;
55037;SDS011;40937;53.594;10.034;2023-10-19T04:12:31;13.25;;;12.05;;
55037;SDS011;40937;53.594;10.034;2023-10-19T04:14:58;20.20;;;13.48;;
55037;SDS011;40937;53.594;10.034;2023-10-19T04:17:36;18.35;;;12.25;;
55037;SDS011;40937;53.594;10.034;2023-10-19T04:20:04;14.27;;;12.63;;
55037;SDS011;40937;53.594;10.034;2023-10-19T04:22:45;13.90;;;12.45;;
55037;SDS011;40937;53.594;10.034;2023-10-19T04:25:13;16.95;;;13.82;;
55037;SDS011;40937;53.594;10.034;2023-10-19T04:27:41;15.57;;;13.07;;
55037;SDS011;40937;53.594;10.034;2023-10-19T04:30:09;14.13;;;12.77;;
55037;SDS011;40937;53.594;10.034;2023-10-19T04:32:43;13.50;;;12.30;;
55037;SDS011;40937;53.594;10.034;2023-10-19T04:35:10;14.77;;;12.77;;
55037;SDS011;40937;53.594;10.034;2023-10-19T04:37:39;14.30;;;12.85;;
55037;SDS011;40937;53.594;10.034;2023-10-19T04:40:08;16.48;;;13.52;;
55037;SDS011;40937;53.594;10.034;2023-10-19T04:42:37;14.93;;;13.35;;
55037;SDS011;40937;53.594;10.034;2023-10-19T04:45:05;17.98;;;13.00;;
55037;SDS011;40937;53.594;10.034;2023-10-19T04:47:33;14.25;;;12.25;;
55037;SDS011;40937;53.594;10.034;2023-10-19T04:50:03;15.20;;;13.10;;
55037;SDS011;40937;53.594;10.034;2023-10-19T04:52:30;16.70;;;14.02;;
55037;SDS011;40937;53.594;10.034;2023-10-19T04:54:58;15.30;;;13.13;;
55037;SDS011;40937;53.594;10.034;2023-10-19T04:57:27;15.15;;;13.55;;
55037;SDS011;40937;53.594;10.034;2023-10-19T04:59:54;14.48;;;13.15;;
55037;SDS011;40937;53.594;10.034;2023-10-19T05:02:22;16.38;;;13.52;;
55037;SDS011;40937;53.594;10.034;2023-10-19T05:04:49;15.32;;;13.80;;
55037;SDS011;40937;53.594;10.034;2023-10-19T05:07:17;16.35;;;13.93;;
55037;SDS011;40937;53.594;10.034;2023-10-19T05:09:45;18.85;;;13.40;;
55037;SDS011;40937;53.594;10.034;2023-10-19T05:12:14;15.98;;;14.18;;
55037;SDS011;40937;53.594;10.034;2023-10-19T05:14:42;14.00;;;12.70;;
55037;SDS011;40937;53.594;10.034;2023-10-19T05:17:10;17.95;;;13.82;;
55037;SDS011;40937;53.594;10.034;2023-10-19T05:19:38;14.70;;;13.20;;
55037;SDS011;40937;53.594;10.034;2023-10-19T05:22:06;15.30;;;13.07;;
55037;SDS011;40937;53.594;10.034;2023-10-19T05:24:35;14.77;;;13.30;;
55037;SDS011;40937;53.594;10.034;2023-10-19T05:27:03;15.18;;;13.60;;
55037;SDS011;40937;53.594;10.034;2023-10-19T05:29:30;14.60;;;13.15;;
55037;SDS011;40937;53.594;10.034;2023-10-19T05:31:58;15.02;;;13.45;;
55037;SDS011;40937;53.594;10.034;2023-10-19T05:34:26;15.07;;;13.50;;
55037;SDS011;40937;53.594;10.034;2023-10-19T05:36:54;15.63;;;14.02;;
55037;SDS011;40937;53.594;10.034;2023-10-19T05:39:24;15.70;;;14.07;;
55037;SDS011;40937;53.594;10.034;2023-10-19T05:41:54;17.50;;;15.68;;
55037;SDS011;40937;53.594;10.034;2023-10-19T05:44:22;15.02;;;13.50;;
55037;SDS011;40937;53.594;10.034;2023-10-19T05:46:50;14.82;;;13.52;;
55037;SDS011;40937;53.594;10.034;2023-10-19T05:49:17;15.30;;;13.68;;
55037;SDS011;40937;53.594;10.034;2023-10-19T05:51:45;16.75;;;14.80;;
55037;SDS011;40937;53.594;10.034;2023-10-19T05:54:12;13.68;;;12.48;;
55037;SDS011;40937;53.594;10.034;2023-10-19T05:56:39;17.27;;;15.27;;
55037;SDS011;40937;53.594;10.034;2023-10-19T05:59:08;15.68;;;14.05;;
55037;SDS011;40937;53.594;10.034;2023-10-19T06:01:36;19.90;;;14.50;;
55037;SDS011;40937;53.594;10.034;2023-10-19T06:04:04;14.52;;;13.15;;
55037;SDS011;40937;53.594;10.034;2023-10-19T06:06:32;14.98;;;13.60;;
55037;SDS011;40937;53.594;10.034;2023-10-19T06:08:59;15.18;;;13.60;;
55037;SDS011;40937;53.594;10.034;2023-10-19T06:11:28;16.10;;;14.43;;
55037;SDS011;40937;53.594;10.034;2023-10-19T06:13:58;14.63;;;13.27;;
55037;SDS011;40937;53.594;10.034;2023-10-19T06:16:27;15.95;;;14.13;;
55037;SDS011;40937;53.594;10.034;2023-10-19T06:18:54;15.48;;;13.70;;
55037;SDS011;40937;53.594;10.034;2023-10-19T06:21:22;18.90;;;14.35;;
55037;SDS011;40937;53.594;10.034;2023-10-19T06:23:49;15.35;;;13.93;;
55037;SDS011;40937;53.594;10.034;2023-10-19T06:26:18;21.67;;;14.30;;
55037;SDS011;40937;53.594;10.034;2023-10-19T06:28:45;16.65;;;15.05;;
55037;SDS011;40937;53.594;10.034;2023-10-19T06:31:12;16.15;;;14.25;;
55037;SDS011;40937;53.594;10.034;2023-10-19T06:33:42;16.75;;;15.05;;
55037;SDS011;40937;53.594;10.034;2023-10-19T06:36:09;15.63;;;13.70;;
55037;SDS011;40937;53.594;10.034;2023-10-19T06:38:36;15.98;;;14.45;;
55037;SDS011;40937;53.594;10.034;2023-10-19T06:41:09;16.55;;;14.27;;
55037;SDS011;40937;53.594;10.034;2023-10-19T06:43:37;16.10;;;14.43;;
55037;SDS011;40937;53.594;10.034;2023-10-19T06:46:05;17.70;;;14.50;;
55037;SDS011;40937;53.594;10.034;2023-10-19T06:48:33;16.27;;;13.68;;
55037;SDS011;40937;53.594;10.034;2023-10-19T06:51:02;15.82;;;14.27;;
55037;SDS011;40937;53.594;10.034;2023-10-19T06:53:30;17.88;;;14.15;;
55037;SDS011;40937;53.594;10.034;2023-10-19T06:55:58;17.95;;;15.32;;
55037;SDS011;40937;53.594;10.034;2023-10-19T06:58:26;22.83;;;13.93;;
55037;SDS011;40937;53.594;10.034;2023-10-19T07:00:53;15.40;;;13.80;;
55037;SDS011;40937;53.594;10.034;2023-10-19T07:03:25;15.50;;;13.90;;
55037;SDS011;40937;53.594;10.034;2023-10-19T07:05:54;16.63;;;14.82;;
55037;SDS011;40937;53.594;10.034;2023-10-19T07:08:25;16.23;;;14.70;;
55037;SDS011;40937;53.594;10.034;2023-10-19T07:10:53;17.52;;;14.25;;
55037;SDS011;40937;53.594;10.034;2023-10-19T07:13:20;17.83;;;15.95;;
55037;SDS011;40937;53.594;10.034;2023-10-19T07:15:48;25.88;;;15.38;;
55037;SDS011;40937;53.594;10.034;2023-10-19T07:18:17;16.65;;;14.98;;
55037;SDS011;40937;53.594;10.034;2023-10-19T07:20:44;15.23;;;13.82;;
55037;SDS011;40937;53.594;10.034;2023-10-19T07:23:14;17.85;;;13.52;;
55037;SDS011;40937;53.594;10.034;2023-10-19T07:25:47;16.85;;;15.15;;
55037;SDS011;40937;53.594;10.034;2023-10-19T07:28:19;17.17;;;15.13;;
55037;SDS011;40937;53.594;10.034;2023-10-19T07:30:47;16.75;;;15.15;;
55037;SDS011;40937;53.594;10.034;2023-10-19T07:33:16;16.13;;;14.15;;
55037;SDS011;40937;53.594;10.034;2023-10-19T07:35:45;17.40;;;14.05;;
55037;SDS011;40937;53.594;10.034;2023-10-19T07:38:13;16.30;;;14.70;;
55037;SDS011;40937;53.594;10.034;2023-10-19T07:40:42;20.58;;;14.60;;
55037;SDS011;40937;53.594;10.034;2023-10-19T07:43:11;16.48;;;14.70;;
55037;SDS011;40937;53.594;10.034;2023-10-19T07:45:38;16.70;;;15.18;;
55037;SDS011;40937;53.594;10.034;2023-10-19T07:48:06;15.73;;;14.23;;
55037;SDS011;40937;53.594;10.034;2023-10-19T07:50:36;16.75;;;15.07;;
55037;SDS011;40937;53.594;10.034;2023-10-19T07:53:06;17.98;;;15.65;;
55037;SDS011;40937;53.594;10.034;2023-10-19T07:55:34;16.00;;;14.27;;
55037;SDS011;40937;53.594;10.034;2023-10-19T07:58:04;17.27;;;15.55;;
55037;SDS011;40937;53.594;10.034;2023-10-19T08:00:33;16.00;;;14.32;;
55037;SDS011;40937;53.594;10.034;2023-10-19T08:03:01;16.85;;;15.23;;
55037;SDS011;40937;53.594;10.034;2023-10-19T08:05:30;19.27;;;16.40;;
55037;SDS011;40937;53.594;10.034;2023-10-19T08:07:57;21.15;;;15.07;;
55037;SDS011;40937;53.594;10.034;2023-10-19T08:10:26;17.05;;;15.45;;
55037;SDS011;40937;53.594;10.034;2023-10-19T08:12:53;17.40;;;15.77;;
55037;SDS011;40937;53.594;10.034;2023-10-19T08:15:21;15.90;;;14.25;;
55037;SDS011;40937;53.594;10.034;2023-10-19T08:17:50;17.67;;;15.65;;
55037;SDS011;40937;53.594;10.034;2023-10-19T08:20:19;17.23;;;15.50;;
55037;SDS011;40937;53.594;10.034;2023-10-19T08:22:50;17.58;;;15.13;;
55037;SDS011;40937;53.594;10.034;2023-10-19T08:25:17;15.50;;;14.10;;
55037;SDS011;40937;53.594;10.034;2023-10-19T08:27:44;18.73;;;15.00;;
55037;SDS011;40937;53.594;10.034;2023-10-19T08:30:14;16.33;;;14.70;;
55037;SDS011;40937;53.594;10.034;2023-10-19T08:32:43;16.90;;;15.38;;
55037;SDS011;40937;53.594;10.034;2023-10-19T08:35:15;17.90;;;15.82;;
55037;SDS011;40937;53.594;10.034;2023-10-19T08:37:43;16.92;;;15.23;;
55037;SDS011;40937;53.594;10.034;2023-10-19T08:40:11;17.25;;;15.60;;
55037;SDS011;40937;53.594;10.034;2023-10-19T08:42:40;17.65;;;16.10;;
55037;SDS011;40937;53.594;10.034;2023-10-19T08:45:08;17.63;;;16.02;;
55037;SDS011;40937;53.594;10.034;2023-10-19T08:47:40;19.15;;;16.33;;
55037;SDS011;40937;53.594;10.034;2023-10-19T08:50:08;17.75;;;15.30;;
55037;SDS011;40937;53.594;10.034;2023-10-19T08:52:37;18.55;;;15.70;;
55037;SDS011;40937;53.594;10.034;2023-10-19T08:55:05;18.60;;;16.88;;
55037;SDS011;40937;53.594;10.034;2023-10-19T08:57:35;18.88;;;15.63;;
55037;SDS011;40937;53.594;10.034;2023-10-19T09:00:05;19.05;;;16.67;;
55037;SDS011;40937;53.594;10.034;2023-10-19T09:02:33;17.90;;;15.20;;
55037;SDS011;40937;53.594;10.034;2023-10-19T09:05:05;19.02;;;16.98;;
55037;SDS011;40937;53.594;10.034;2023-10-19T09:07:33;18.30;;;16.07;;
55037;SDS011;40937;53.594;10.034;2023-10-19T09:10:02;18.50;;;16.73;;
55037;SDS011;40937;53.594;10.034;2023-10-19T09:12:31;22.73;;;16.15;;
55037;SDS011;40937;53.594;10.034;2023-10-19T09:14:59;18.25;;;16.40;;
55037;SDS011;40937;53.594;10.034;2023-10-19T09:17:29;18.83;;;16.95;;
55037;SDS011;40937;53.594;10.034;2023-10-19T09:19:57;18.98;;;17.05;;
55037;SDS011;40937;53.594;10.034;2023-10-19T09:22:34;19.10;;;16.67;;
55037;SDS011;40937;53.594;10.034;2023-10-19T09:25:11;18.67;;;16.88;;
55037;SDS011;40937;53.594;10.034;2023-10-19T09:27:39;20.33;;;17.40;;
55037;SDS011;40937;53.594;10.034;2023-10-19T09:30:06;18.70;;;16.98;;
55037;SDS011;40937;53.594;10.034;2023-10-19T09:32:35;18.50;;;16.83;;
55037;SDS011;40937;53.594;10.034;2023-10-19T09:35:05;18.50;;;16.80;;
55037;SDS011;40937;53.594;10.034;2023-10-19T09:37:34;21.60;;;17.27;;
55037;SDS011;40937;53.594;10.034;2023-10-19T09:40:01;20.23;;;17.88;;
55037;SDS011;40937;53.594;10.034;2023-10-19T09:42:30;19.52;;;17.50;;
55037;SDS011;40937;53.594;10.034;2023-10-19T09:44:59;19.15;;;17.35;;
55037;SDS011;40937;53.594;10.034;2023-10-19T09:47:33;19.00;;;17.17;;
55037;SDS011;40937;53.594;10.034;2023-10-19T09:50:03;18.42;;;16.70;;
55037;SDS011;40937;53.594;10.034;2023-10-19T09:52:32;19.15;;;17.27;;
55037;SDS011;40937;53.594;10.034;2023-10-19T09:55:00;18.45;;;16.65;;
55037;SDS011;40937;53.594;10.034;2023-10-19T09:57:36;19.42;;;17.63;;
55037;SDS011;40937;53.594;10.034;2023-10-19T10:00:11;19.25;;;17.42;;
55037;SDS011;40937;53.594;10.034;2023-10-19T10:02:38;18.95;;;17.15;;
55037;SDS011;40937;53.594;10.034;2023-10-19T10:08:31;18.45;;;16.55;;
55037;SDS011;40937;53.594;10.034;2023-10-19T10:11:00;19.05;;;16.15;;
55037;SDS011;40937;53.594;10.034;2023-10-19T10:13:44;18.38;;;16.73;;
55037;SDS011;40937;53.594;10.034;2023-10-19T10:16:16;18.50;;;16.60;;
55037;SDS011;40937;53.594;10.034;2023-10-19T10:18:46;18.27;;;16.38;;
55037;SDS011;40937;53.594;10.034;2023-10-19T10:21:16;18.80;;;16.90;;
55037;SDS011;40937;53.594;10.034;2023-10-19T10:23:49;17.38;;;15.52;;
55037;SDS011;40937;53.594;10.034;2023-10-19T10:26:18;16.45;;;15.05;;
55037;SDS011;40937;53.594;10.034;2023-10-19T10:31:42;15.65;;;14.25;;
55037;SDS011;40937;53.594;10.034;2023-10-19T10:34:10;16.73;;;15.23;;
55037;SDS011;40937;53.594;10.034;2023-10-19T10:36:57;16.77;;;15.05;;
55037;SDS011;40937;53.594;10.034;2023-10-19T10:39:28;17.65;;;15.88;;
55037;SDS011;40937;53.594;10.034;2023-10-19T10:41:57;17.13;;;15.38;;
55037;SDS011;40937;53.594;10.034;2023-10-19T10:44:39;17.40;;;15.77;;
55037;SDS011;40937;53.594;10.034;2023-10-19T10:47:08;15.52;;;14.18;;
55037;SDS011;40937;53.594;10.034;2023-10-19T10:49:46;16.05;;;14.43;;
55037;SDS011;40937;53.594;10.034;2023-10-19T10:52:22;16.10;;;14.75;;
55037;SDS011;40937;53.594;10.034;2023-10-19T10:54:51;15.10;;;13.70;;
55037;SDS011;40937;53.594;10.034;2023-10-19T10:57:18;16.63;;;15.13;;
55037;SDS011;40937;53.594;10.034;2023-10-19T10:59:48;15.52;;;14.13;;
55037;SDS011;40937;53.594;10.034;2023-10-19T11:02:28;16.38;;;14.98;;
55037;SDS011;40937;53.594;10.034;2023-10-19T11:04:58;16.05;;;14.48;;
55037;SDS011;40937;53.594;10.034;2023-10-19T11:07:25;17.63;;;15.18;;
55037;SDS011;40937;53.594;10.034;2023-10-19T11:09:52;16.63;;;15.02;;
55037;SDS011;40937;53.594;10.034;2023-10-19T11:12:20;16.75;;;15.18;;
55037;SDS011;40937;53.594;10.034;2023-10-19T11:14:52;16.88;;;15.43;;
55037;SDS011;40937;53.594;10.034;2023-10-19T11:17:20;17.60;;;15.98;;
55037;SDS011;40937;53.594;10.034;2023-10-19T11:19:54;16.85;;;15.25;;
55037;SDS011;40937;53.594;10.034;2023-10-19T11:22:23;18.20;;;16.40;;
55037;SDS011;40937;53.594;10.034;2023-10-19T11:24:52;18.75;;;16.77;;
55037;SDS011;40937;53.594;10.034;2023-10-19T11:27:23;18.65;;;16.75;;
55037;SDS011;40937;53.594;10.034;2023-10-19T11:29:55;19.83;;;17.35;;
55037;SDS011;40937;53.594;10.034;2023-10-19T11:32:23;19.88;;;17.90;;
55037;SDS011;40937;53.594;10.034;2023-10-19T11:34:52;19.35;;;17.30;;
55037;SDS011;40937;53.594;10.034;2023-10-19T11:37:19;19.23;;;16.90;;
55037;SDS011;40937;53.594;10.034;2023-10-19T11:39:46;18.08;;;16.45;;
55037;SDS011;40937;53.594;10.034;2023-10-19T11:42:15;19.27;;;17.23;;
55037;SDS011;40937;53.594;10.034;2023-10-19T11:44:43;18.02;;;16.60;;
55037;SDS011;40937;53.594;10.034;2023-10-19T11:47:13;18.90;;;17.10;;
55037;SDS011;40937;53.594;10.034;2023-10-19T11:49:40;18.15;;;16.45;;
55037;SDS011;40937;53.594;10.034;2023-10-19T11:52:07;18.42;;;16.52;;
55037;SDS011;40937;53.594;10.034;2023-10-19T11:54:35;19.77;;;17.80;;
55037;SDS011;40937;53.594;10.034;2023-10-19T11:57:02;18.45;;;16.73;;
55037;SDS011;40937;53.594;10.034;2023-10-19T11:59:29;18.10;;;15.70;;
55037;SDS011;40937;53.594;10.034;2023-10-19T12:01:56;19.63;;;17.75;;
55037;SDS011;40937;53.594;10.034;2023-10-19T12:04:27;17.95;;;16.08;;
55037;SDS011;40937;53.594;10.034;2023-10-19T12:06:55;16.33;;;14.75;;
55037;SDS011;40937;53.594;10.034;2023-10-19T12:09:22;17.60;;;15.80;;
55037;SDS011;40937;53.594;10.034;2023-10-19T12:11:51;17.33;;;15.82;;
55037;SDS011;40937;53.594;10.034;2023-10-19T12:14:20;17.52;;;15.82;;
55037;SDS011;40937;53.594;10.034;2023-10-19T12:16:48;16.45;;;14.85;;
55037;SDS011;40937;53.594;10.034;2023-10-19T12:19:15;16.52;;;14.95;;
55037;SDS011;40937;53.594;10.034;2023-10-19T12:21:46;17.67;;;16.05;;
55037;SDS011;40937;53.594;10.034;2023-10-19T12:24:15;18.58;;;16.65;;
55037;SDS011;40937;53.594;10.034;2023-10-19T12:26:43;19.38;;;15.32;;
55037;SDS011;40937;53.594;10.034;2023-10-19T12:29:11;16.88;;;14.40;;
55037;SDS011;40937;53.594;10.034;2023-10-19T12:31:40;16.38;;;14.77;;
55037;SDS011;40937;53.594;10.034;2023-10-19T12:34:07;17.42;;;15.30;;
55037;SDS011;40937;53.594;10.034;2023-10-19T12:36:37;17.35;;;15.75;;
55037;SDS011;40937;53.594;10.034;2023-10-19T12:39:06;17.70;;;15.82;;
55037;SDS011;40937;53.594;10.034;2023-10-19T12:41:33;19.23;;;16.95;;
55037;SDS011;40937;53.594;10.034;2023-10-19T12:44:01;19.23;;;17.20;;
55037;SDS011;40937;53.594;10.034;2023-10-19T12:46:33;17.17;;;15.65;;
55037;SDS011;40937;53.594;10.034;2023-10-19T12:49:03;19.20;;;17.33;;
55037;SDS011;40937;53.594;10.034;2023-10-19T12:51:34;17.52;;;15.70;;
55037;SDS011;40937;53.594;10.034;2023-10-19T12:54:01;24.00;;;16.73;;
55037;SDS011;40937;53.594;10.034;2023-10-19T12:56:30;20.85;;;16.05;;
55037;SDS011;40937;53.594;10.034;2023-10-19T12:58:59;17.92;;;16.30;;
55037;SDS011;40937;53.594;10.034;2023-10-19T13:01:26;17.95;;;16.38;;
55037;SDS011;40937;53.594;10.034;2023-10-19T13:03:53;18.33;;;16.52;;
55037;SDS011;40937;53.594;10.034;2023-10-19T13:06:21;17.65;;;15.68;;
55037;SDS011;40937;53.594;10.034;2023-10-19T13:08:49;16.98;;;15.27;;
55037;SDS011;40937;53.594;10.034;2023-10-19T13:11:16;17.70;;;16.08;;
55037;SDS011;40937;53.594;10.034;2023-10-19T13:13:45;20.92;;;16.60;;
55037;SDS011;40937;53.594;10.034;2023-10-19T13:16:12;18.55;;;15.48;;
55037;SDS011;40937;53.594;10.034;2023-10-19T13:18:40;17.98;;;16.27;;
55037;SDS011;40937;53.594;10.034;2023-10-19T13:21:07;18.65;;;16.20;;
55037;SDS011;40937;53.594;10.034;2023-10-19T13:23:37;19.10;;;17.08;;
55037;SDS011;40937;53.594;10.034;2023-10-19T13:26:04;19.25;;;16.95;;
55037;SDS011;40937;53.594;10.034;2023-10-19T13:28:43;16.85;;;15.35;;
55037;SDS011;40937;53.594;10.034;2023-10-19T13:31:12;18.02;;;16.45;;
55037;SDS011;40937;53.594;10.034;2023-10-19T13:33:40;17.65;;;16.05;;
55037;SDS011;40937;53.594;10.034;2023-10-19T13:36:09;18.63;;;16.88;;
55037;SDS011;40937;53.594;10.034;2023-10-19T13:38:38;18.40;;;16.27;;
55037;SDS011;40937;53.594;10.034;2023-10-19T13:41:05;18.42;;;16.83;;
55037;SDS011;40937;53.594;10.034;2023-10-19T13:43:35;18.83;;;16.92;;
55037;SDS011;40937;53.594;10.034;2023-10-19T13:46:03;18.77;;;17.05;;
55037;SDS011;40937;53.594;10.034;2023-10-19T13:48:31;18.15;;;15.95;;
55037;SDS011;40937;53.594;10.034;2023-10-19T13:50:59;18.50;;;16.58;;
55037;SDS011;40937;53.594;10.034;2023-10-19T13:53:38;17.85;;;16.05;;
55037;SDS011;40937;53.594;10.034;2023-10-19T13:56:07;17.58;;;15.75;;
55037;SDS011;40937;53.594;10.034;2023-10-19T13:58:35;19.58;;;16.75;;
55037;SDS011;40937;53.594;10.034;2023-10-19T14:01:02;18.05;;;16.27;;
55037;SDS011;40937;53.594;10.034;2023-10-19T14:03:35;18.35;;;16.63;;
55037;SDS011;40937;53.594;10.034;2023-10-19T14:06:04;18.40;;;16.75;;
55037;SDS011;40937;53.594;10.034;2023-10-19T14:08:31;17.60;;;15.88;;
55037;SDS011;40937;53.594;10.034;2023-10-19T14:11:01;18.23;;;16.45;;
55037;SDS011;40937;53.594;10.034;2023-10-19T14:13:29;17.45;;;15.65;;
55037;SDS011;40937;53.594;10.034;2023-10-19T14:15:56;24.63;;;16.00;;
55037;SDS011;40937;53.594;10.034;2023-10-19T14:18:23;20.17;;;15.38;;
55037;SDS011;40937;53.594;10.034;2023-10-19T14:20:52;18.45;;;16.50;;
55037;SDS011;40937;53.594;10.034;2023-10-19T14:23:19;18.02;;;16.27;;
55037;SDS011;40937;53.594;10.034;2023-10-19T14:25:46;18.40;;;16.58;;
55037;SDS011;40937;53.594;10.034;2023-10-19T14:28:15;18.17;;;15.98;;
55037;SDS011;40937;53.594;10.034;2023-10-19T14:30:42;16.05;;;14.68;;
55037;SDS011;40937;53.594;10.034;2023-10-19T14:33:10;17.38;;;15.65;;